sensor_id;sensor_type;location;lat;lon;timestamp;pressure;altitude;pressure_sealevel;temperature;humidity
7109;BME280;29079;41.930;25.558;2023-06-14T00:02:08;99239.56;;;20.17;89.08
7109;BME280;29079;41.930;25.558;2023-06-14T00:04:56;99238.47;;;19.85;92.23
7109;BME280;29079;41.930;25.558;2023-06-14T00:07:46;99234.34;;;19.47;91.45
7109;BME280;29079;41.930;25.558;2023-06-14T00:10:35;99234.22;;;19.69;92.17
7109;BME280;29079;41.930;25.558;2023-06-14T00:13:23;99244.91;;;19.83;90.93
7109;BME280;29079;41.930;25.558;2023-06-14T00:16:12;99236.50;;;19.72;92.40
7109;BME280;29079;41.930;25.558;2023-06-14T00:19:00;99222.53;;;19.61;92.26
7109;BME280;29079;41.930;25.558;2023-06-14T00:21:49;99232.91;;;20.20;90.07
7109;BME280;29079;41.930;25.558;2023-06-14T00:24:38;99231.63;;;20.02;90.52
7109;BME280;29079;41.930;25.558;2023-06-14T00:27:26;99226.22;;;19.47;93.07
7109;BME280;29079;41.930;25.558;2023-06-14T00:30:14;99228.00;;;19.26;93.98
7109;BME280;29079;41.930;25.558;2023-06-14T00:33:03;99230.84;;;19.60;93.68
7109;BME280;29079;41.930;25.558;2023-06-14T00:35:52;99221.59;;;19.89;91.70
7109;BME280;29079;41.930;25.558;2023-06-14T00:38:40;99197.31;;;19.54;92.92
7109;BME280;29079;41.930;25.558;2023-06-14T00:41:28;99227.78;;;19.28;95.29
7109;BME280;29079;41.930;25.558;2023-06-14T00:44:17;99220.84;;;19.54;93.65
7109;BME280;29079;41.930;25.558;2023-06-14T00:47:05;99221.09;;;19.65;93.96
7109;BME280;29079;41.930;25.558;2023-06-14T00:49:55;99221.50;;;19.69;94.32
7109;BME280;29079;41.930;25.558;2023-06-14T00:52:43;99224.22;;;19.62;92.85
7109;BME280;29079;41.930;25.558;2023-06-14T00:55:31;99212.34;;;19.70;92.78
7109;BME280;29079;41.930;25.558;2023-06-14T00:58:21;99212.72;;;19.12;95.12
7109;BME280;29079;41.930;25.558;2023-06-14T01:01:10;99209.16;;;19.05;95.54
7109;BME280;29079;41.930;25.558;2023-06-14T01:03:58;99217.88;;;19.42;94.83
7109;BME280;29079;41.930;25.558;2023-06-14T01:06:55;99211.78;;;19.26;95.96
7109;BME280;29079;41.930;25.558;2023-06-14T01:10:01;99218.81;;;19.21;96.91
7109;BME280;29079;41.930;25.558;2023-06-14T01:12:56;99213.13;;;19.09;98.00
7109;BME280;29079;41.930;25.558;2023-06-14T01:15:47;99212.38;;;19.28;98.08
7109;BME280;29079;41.930;25.558;2023-06-14T01:18:35;99211.22;;;19.03;100.00
7109;BME280;29079;41.930;25.558;2023-06-14T01:21:24;99219.34;;;19.03;99.96
7109;BME280;29079;41.930;25.558;2023-06-14T01:24:14;99217.22;;;19.33;99.26
7109;BME280;29079;41.930;25.558;2023-06-14T01:27:02;99215.28;;;19.27;98.17
7109;BME280;29079;41.930;25.558;2023-06-14T01:29:51;99184.47;;;19.21;98.03
7109;BME280;29079;41.930;25.558;2023-06-14T01:32:43;99211.44;;;19.08;100.00
7109;BME280;29079;41.930;25.558;2023-06-14T01:35:32;99209.75;;;19.00;100.00
7109;BME280;29079;41.930;25.558;2023-06-14T01:38:23;99212.63;;;18.70;100.00
7109;BME280;29079;41.930;25.558;2023-06-14T01:41:14;99212.94;;;18.54;100.00
7109;BME280;29079;41.930;25.558;2023-06-14T01:44:03;99206.06;;;18.79;100.00
7109;BME280;29079;41.930;25.558;2023-06-14T01:46:52;99208.03;;;18.64;100.00
7109;BME280;29079;41.930;25.558;2023-06-14T01:49:40;99215.22;;;19.07;100.00
7109;BME280;29079;41.930;25.558;2023-06-14T01:52:28;99206.78;;;18.88;100.00
7109;BME280;29079;41.930;25.558;2023-06-14T01:55:16;99207.88;;;18.72;100.00
7109;BME280;29079;41.930;25.558;2023-06-14T01:58:06;99212.81;;;18.90;100.00
7109;BME280;29079;41.930;25.558;2023-06-14T02:00:54;99200.22;;;19.53;100.00
7109;BME280;29079;41.930;25.558;2023-06-14T02:03:43;99205.53;;;19.26;100.00
7109;BME280;29079;41.930;25.558;2023-06-14T02:06:31;99183.78;;;18.77;100.00
7109;BME280;29079;41.930;25.558;2023-06-14T02:09:19;99196.03;;;19.02;100.00
7109;BME280;29079;41.930;25.558;2023-06-14T02:12:08;99189.81;;;19.01;100.00
7109;BME280;29079;41.930;25.558;2023-06-14T02:14:58;99192.28;;;19.44;99.77
7109;BME280;29079;41.930;25.558;2023-06-14T02:17:45;99194.44;;;19.62;98.71
7109;BME280;29079;41.930;25.558;2023-06-14T02:20:35;99200.22;;;19.11;100.00
7109;BME280;29079;41.930;25.558;2023-06-14T02:23:23;99201.16;;;18.90;100.00
7109;BME280;29079;41.930;25.558;2023-06-14T02:26:11;99192.75;;;18.78;100.00
7109;BME280;29079;41.930;25.558;2023-06-14T02:28:59;99210.84;;;19.06;100.00
7109;BME280;29079;41.930;25.558;2023-06-14T02:31:48;99212.00;;;18.96;100.00
7109;BME280;29079;41.930;25.558;2023-06-14T02:34:36;99211.41;;;19.36;100.00
7109;BME280;29079;41.930;25.558;2023-06-14T02:37:27;99216.03;;;19.49;99.14
7109;BME280;29079;41.930;25.558;2023-06-14T02:40:15;99222.81;;;18.96;100.00
7109;BME280;29079;41.930;25.558;2023-06-14T02:43:03;99224.22;;;18.57;100.00
7109;BME280;29079;41.930;25.558;2023-06-14T02:45:51;99223.44;;;18.42;100.00
7109;BME280;29079;41.930;25.558;2023-06-14T02:48:41;99222.47;;;18.50;100.00
7109;BME280;29079;41.930;25.558;2023-06-14T02:51:28;99233.09;;;18.79;100.00
7109;BME280;29079;41.930;25.558;2023-06-14T02:54:16;99235.25;;;18.62;100.00
7109;BME280;29079;41.930;25.558;2023-06-14T02:57:05;99241.47;;;18.35;100.00
7109;BME280;29079;41.930;25.558;2023-06-14T02:59:54;99242.88;;;18.31;100.00
7109;BME280;29079;41.930;25.558;2023-06-14T03:02:42;99234.88;;;18.22;100.00
7109;BME280;29079;41.930;25.558;2023-06-14T03:05:32;99239.03;;;18.18;100.00
7109;BME280;29079;41.930;25.558;2023-06-14T03:08:20;99244.66;;;18.45;100.00
7109;BME280;29079;41.930;25.558;2023-06-14T03:11:13;99248.91;;;18.33;100.00
7109;BME280;29079;41.930;25.558;2023-06-14T03:14:01;99251.09;;;18.44;100.00
7109;BME280;29079;41.930;25.558;2023-06-14T03:16:50;99248.25;;;18.52;100.00
7109;BME280;29079;41.930;25.558;2023-06-14T03:19:43;99250.84;;;18.39;100.00
7109;BME280;29079;41.930;25.558;2023-06-14T03:22:32;99257.28;;;18.38;100.00
7109;BME280;29079;41.930;25.558;2023-06-14T03:25:20;99249.94;;;18.32;100.00
7109;BME280;29079;41.930;25.558;2023-06-14T03:28:09;99231.38;;;18.22;100.00
7109;BME280;29079;41.930;25.558;2023-06-14T03:30:57;99250.91;;;18.24;100.00
7109;BME280;29079;41.930;25.558;2023-06-14T03:33:45;99250.25;;;18.00;100.00
7109;BME280;29079;41.930;25.558;2023-06-14T03:36:33;99249.44;;;18.43;100.00
7109;BME280;29079;41.930;25.558;2023-06-14T03:39:22;99255.63;;;18.87;100.00
7109;BME280;29079;41.930;25.558;2023-06-14T03:42:10;99261.88;;;18.87;100.00
7109;BME280;29079;41.930;25.558;2023-06-14T03:44:58;99255.53;;;18.80;100.00
7109;BME280;29079;41.930;25.558;2023-06-14T03:47:46;99256.28;;;18.67;100.00
7109;BME280;29079;41.930;25.558;2023-06-14T03:50:35;99252.66;;;18.32;100.00
7109;BME280;29079;41.930;25.558;2023-06-14T03:53:24;99252.34;;;18.20;100.00
7109;BME280;29079;41.930;25.558;2023-06-14T03:56:15;99259.34;;;18.36;100.00
7109;BME280;29079;41.930;25.558;2023-06-14T03:59:03;99262.69;;;18.38;100.00
7109;BME280;29079;41.930;25.558;2023-06-14T04:01:51;99266.19;;;18.60;100.00
7109;BME280;29079;41.930;25.558;2023-06-14T04:04:39;99265.38;;;18.59;100.00
7109;BME280;29079;41.930;25.558;2023-06-14T04:07:30;99270.47;;;18.26;100.00
7109;BME280;29079;41.930;25.558;2023-06-14T04:10:18;99279.53;;;18.18;100.00
7109;BME280;29079;41.930;25.558;2023-06-14T04:13:08;99278.06;;;18.16;100.00
7109;BME280;29079;41.930;25.558;2023-06-14T04:15:59;99279.78;;;18.45;100.00
7109;BME280;29079;41.930;25.558;2023-06-14T04:18:47;99286.47;;;18.49;100.00
7109;BME280;29079;41.930;25.558;2023-06-14T04:21:34;99282.09;;;18.26;100.00
7109;BME280;29079;41.930;25.558;2023-06-14T04:24:23;99279.25;;;18.13;100.00
7109;BME280;29079;41.930;25.558;2023-06-14T04:27:18;99284.47;;;18.36;100.00
7109;BME280;29079;41.930;25.558;2023-06-14T04:30:10;99282.47;;;18.23;100.00
7109;BME280;29079;41.930;25.558;2023-06-14T04:32:59;99284.28;;;18.16;100.00
7109;BME280;29079;41.930;25.558;2023-06-14T04:35:47;99297.53;;;18.11;100.00
7109;BME280;29079;41.930;25.558;2023-06-14T04:38:35;99302.03;;;18.04;100.00
7109;BME280;29079;41.930;25.558;2023-06-14T04:41:23;99306.22;;;18.28;100.00
7109;BME280;29079;41.930;25.558;2023-06-14T04:44:15;99308.09;;;18.49;100.00
7109;BME280;29079;41.930;25.558;2023-06-14T04:47:05;99303.13;;;18.53;100.00
7109;BME280;29079;41.930;25.558;2023-06-14T04:49:53;99207.72;;;18.02;100.00
7109;BME280;29079;41.930;25.558;2023-06-14T04:52:41;99314.41;;;18.56;100.00
7109;BME280;29079;41.930;25.558;2023-06-14T04:55:29;99315.81;;;18.52;100.00
7109;BME280;29079;41.930;25.558;2023-06-14T04:58:17;99317.94;;;18.57;100.00
7109;BME280;29079;41.930;25.558;2023-06-14T05:01:05;99327.31;;;18.61;100.00
7109;BME280;29079;41.930;25.558;2023-06-14T05:03:57;99323.47;;;18.92;100.00
7109;BME280;29079;41.930;25.558;2023-06-14T05:06:45;99323.06;;;18.95;100.00
7109;BME280;29079;41.930;25.558;2023-06-14T05:09:34;99335.81;;;19.01;100.00
7109;BME280;29079;41.930;25.558;2023-06-14T05:12:22;99328.09;;;18.98;100.00
7109;BME280;29079;41.930;25.558;2023-06-14T05:15:10;99340.00;;;19.32;100.00
7109;BME280;29079;41.930;25.558;2023-06-14T05:17:58;99340.78;;;20.03;98.13
7109;BME280;29079;41.930;25.558;2023-06-14T05:20:48;99349.13;;;19.94;98.82
7109;BME280;29079;41.930;25.558;2023-06-14T05:23:36;99347.25;;;20.02;97.07
7109;BME280;29079;41.930;25.558;2023-06-14T05:26:24;99346.16;;;19.89;95.29
7109;BME280;29079;41.930;25.558;2023-06-14T05:29:15;99347.72;;;20.12;94.24
7109;BME280;29079;41.930;25.558;2023-06-14T05:32:03;99350.63;;;20.17;94.26
7109;BME280;29079;41.930;25.558;2023-06-14T05:34:51;99339.56;;;20.05;95.52
7109;BME280;29079;41.930;25.558;2023-06-14T05:37:40;99356.41;;;20.00;95.52
7109;BME280;29079;41.930;25.558;2023-06-14T05:40:28;99351.22;;;19.99;95.76
7109;BME280;29079;41.930;25.558;2023-06-14T05:43:16;99361.78;;;19.87;96.40
7109;BME280;29079;41.930;25.558;2023-06-14T05:46:06;99362.38;;;19.82;96.59
7109;BME280;29079;41.930;25.558;2023-06-14T05:48:54;99351.56;;;19.89;96.28
7109;BME280;29079;41.930;25.558;2023-06-14T05:51:43;99358.88;;;19.89;96.08
7109;BME280;29079;41.930;25.558;2023-06-14T05:54:32;99360.75;;;19.95;96.21
7109;BME280;29079;41.930;25.558;2023-06-14T05:57:20;99354.13;;;19.97;96.78
7109;BME280;29079;41.930;25.558;2023-06-14T06:00:09;99366.31;;;20.28;95.27
7109;BME280;29079;41.930;25.558;2023-06-14T06:03:00;99367.81;;;20.38;96.49
7109;BME280;29079;41.930;25.558;2023-06-14T06:05:48;99364.50;;;20.56;94.27
7109;BME280;29079;41.930;25.558;2023-06-14T06:08:36;99376.00;;;20.64;95.25
7109;BME280;29079;41.930;25.558;2023-06-14T06:11:26;99377.22;;;20.48;95.55
7109;BME280;29079;41.930;25.558;2023-06-14T06:14:26;99380.34;;;20.59;95.79
7109;BME280;29079;41.930;25.558;2023-06-14T06:17:14;99307.31;;;20.24;96.79
7109;BME280;29079;41.930;25.558;2023-06-14T06:20:02;99377.69;;;20.65;95.47
7109;BME280;29079;41.930;25.558;2023-06-14T06:22:52;99377.66;;;20.52;96.31
7109;BME280;29079;41.930;25.558;2023-06-14T06:25:40;99378.56;;;20.73;97.23
7109;BME280;29079;41.930;25.558;2023-06-14T06:28:29;99384.94;;;20.51;97.67
7109;BME280;29079;41.930;25.558;2023-06-14T06:31:17;99384.41;;;20.83;95.03
7109;BME280;29079;41.930;25.558;2023-06-14T06:34:05;99387.31;;;20.75;96.42
7109;BME280;29079;41.930;25.558;2023-06-14T06:36:53;99381.28;;;20.99;96.86
7109;BME280;29079;41.930;25.558;2023-06-14T06:39:41;99350.19;;;20.68;96.95
7109;BME280;29079;41.930;25.558;2023-06-14T06:42:29;99376.06;;;21.04;94.45
7109;BME280;29079;41.930;25.558;2023-06-14T06:45:19;99381.91;;;21.15;94.18
7109;BME280;29079;41.930;25.558;2023-06-14T06:48:10;99386.72;;;21.06;91.63
7109;BME280;29079;41.930;25.558;2023-06-14T06:50:58;99376.47;;;20.95;91.51
7109;BME280;29079;41.930;25.558;2023-06-14T06:53:52;99384.81;;;21.40;89.44
7109;BME280;29079;41.930;25.558;2023-06-14T06:56:41;99371.47;;;20.98;88.59
7109;BME280;29079;41.930;25.558;2023-06-14T06:59:29;99395.91;;;21.25;89.75
7109;BME280;29079;41.930;25.558;2023-06-14T07:02:18;99388.78;;;21.37;90.05
7109;BME280;29079;41.930;25.558;2023-06-14T07:05:06;99392.97;;;21.27;89.56
7109;BME280;29079;41.930;25.558;2023-06-14T07:07:54;99386.09;;;21.17;86.81
7109;BME280;29079;41.930;25.558;2023-06-14T07:10:43;99385.03;;;21.25;86.38
7109;BME280;29079;41.930;25.558;2023-06-14T07:13:31;99389.84;;;21.36;87.94
7109;BME280;29079;41.930;25.558;2023-06-14T07:16:19;99400.28;;;21.53;86.43
7109;BME280;29079;41.930;25.558;2023-06-14T07:19:08;99402.97;;;21.46;84.21
7109;BME280;29079;41.930;25.558;2023-06-14T07:21:57;99401.31;;;21.45;84.47
7109;BME280;29079;41.930;25.558;2023-06-14T07:24:45;99393.97;;;21.79;84.59
7109;BME280;29079;41.930;25.558;2023-06-14T07:27:33;99396.69;;;21.79;85.45
7109;BME280;29079;41.930;25.558;2023-06-14T07:30:21;99387.94;;;21.50;84.95
7109;BME280;29079;41.930;25.558;2023-06-14T07:33:12;99397.97;;;21.56;86.43
7109;BME280;29079;41.930;25.558;2023-06-14T07:36:02;99397.75;;;21.65;85.53
7109;BME280;29079;41.930;25.558;2023-06-14T07:38:50;99390.03;;;21.68;85.24
7109;BME280;29079;41.930;25.558;2023-06-14T07:41:38;99389.63;;;21.65;83.57
7109;BME280;29079;41.930;25.558;2023-06-14T07:44:29;99397.53;;;21.73;82.27
7109;BME280;29079;41.930;25.558;2023-06-14T07:47:17;99399.78;;;21.89;84.49
7109;BME280;29079;41.930;25.558;2023-06-14T07:50:06;99399.00;;;21.76;81.61
7109;BME280;29079;41.930;25.558;2023-06-14T07:52:55;99393.75;;;21.81;80.54
7109;BME280;29079;41.930;25.558;2023-06-14T07:55:43;99396.03;;;21.84;80.93
7109;BME280;29079;41.930;25.558;2023-06-14T07:58:39;99385.25;;;21.57;81.82
7109;BME280;29079;41.930;25.558;2023-06-14T08:01:27;99406.91;;;21.90;82.54
7109;BME280;29079;41.930;25.558;2023-06-14T08:04:15;99399.53;;;22.04;82.71
7109;BME280;29079;41.930;25.558;2023-06-14T08:07:03;99399.63;;;22.36;82.07
7109;BME280;29079;41.930;25.558;2023-06-14T08:09:55;99402.69;;;22.53;80.04
7109;BME280;29079;41.930;25.558;2023-06-14T08:12:42;99406.19;;;22.60;78.92
7109;BME280;29079;41.930;25.558;2023-06-14T08:15:30;99401.94;;;22.39;78.87
7109;BME280;29079;41.930;25.558;2023-06-14T08:18:18;99400.66;;;22.42;79.53
7109;BME280;29079;41.930;25.558;2023-06-14T08:21:06;99399.84;;;22.73;78.92
7109;BME280;29079;41.930;25.558;2023-06-14T08:23:55;99402.72;;;22.78;78.89
7109;BME280;29079;41.930;25.558;2023-06-14T08:26:44;99384.66;;;22.59;76.65
7109;BME280;29079;41.930;25.558;2023-06-14T08:29:32;99410.28;;;22.76;79.26
7109;BME280;29079;41.930;25.558;2023-06-14T08:32:20;99404.06;;;22.69;77.60
7109;BME280;29079;41.930;25.558;2023-06-14T08:35:09;99403.53;;;22.86;79.35
7109;BME280;29079;41.930;25.558;2023-06-14T08:37:56;99405.66;;;22.84;77.33
7109;BME280;29079;41.930;25.558;2023-06-14T08:40:48;99392.00;;;22.58;78.23
7109;BME280;29079;41.930;25.558;2023-06-14T08:43:39;99405.59;;;22.58;80.42
7109;BME280;29079;41.930;25.558;2023-06-14T08:46:27;99403.13;;;22.50;81.07
7109;BME280;29079;41.930;25.558;2023-06-14T08:49:16;99395.03;;;22.30;79.25
7109;BME280;29079;41.930;25.558;2023-06-14T08:52:05;99417.44;;;22.32;79.50
7109;BME280;29079;41.930;25.558;2023-06-14T08:54:57;99324.78;;;21.88;78.58
7109;BME280;29079;41.930;25.558;2023-06-14T08:57:46;99413.69;;;22.65;77.65
7109;BME280;29079;41.930;25.558;2023-06-14T09:00:37;99413.91;;;22.70;79.18
7109;BME280;29079;41.930;25.558;2023-06-14T09:03:28;99410.72;;;22.73;78.11
7109;BME280;29079;41.930;25.558;2023-06-14T09:06:17;99418.44;;;22.76;76.27
7109;BME280;29079;41.930;25.558;2023-06-14T09:09:09;99411.75;;;22.79;76.79
7109;BME280;29079;41.930;25.558;2023-06-14T09:11:57;99410.31;;;23.34;75.88
7109;BME280;29079;41.930;25.558;2023-06-14T09:14:45;99407.38;;;23.03;75.47
7109;BME280;29079;41.930;25.558;2023-06-14T09:17:34;99403.00;;;23.02;75.00
7109;BME280;29079;41.930;25.558;2023-06-14T09:20:24;99416.78;;;23.07;75.67
7109;BME280;29079;41.930;25.558;2023-06-14T09:23:19;99393.00;;;23.28;73.66
7109;BME280;29079;41.930;25.558;2023-06-14T09:26:08;99402.91;;;23.41;75.03
7109;BME280;29079;41.930;25.558;2023-06-14T09:28:56;99404.03;;;23.33;72.64
7109;BME280;29079;41.930;25.558;2023-06-14T09:31:48;99400.19;;;23.41;73.15
7109;BME280;29079;41.930;25.558;2023-06-14T09:34:37;99399.16;;;23.42;71.60
7109;BME280;29079;41.930;25.558;2023-06-14T09:37:28;99396.69;;;23.34;71.48
7109;BME280;29079;41.930;25.558;2023-06-14T09:40:20;99393.66;;;23.49;73.01
7109;BME280;29079;41.930;25.558;2023-06-14T09:43:08;99386.06;;;23.51;72.07
7109;BME280;29079;41.930;25.558;2023-06-14T09:45:57;99373.97;;;23.46;74.92
7109;BME280;29079;41.930;25.558;2023-06-14T09:48:45;99384.28;;;23.63;73.35
7109;BME280;29079;41.930;25.558;2023-06-14T09:51:41;99364.78;;;23.41;68.63
7109;BME280;29079;41.930;25.558;2023-06-14T09:54:30;99381.63;;;23.75;71.81
7109;BME280;29079;41.930;25.558;2023-06-14T09:57:21;99370.88;;;23.80;71.35
7109;BME280;29079;41.930;25.558;2023-06-14T10:00:11;99370.88;;;23.80;69.68
7109;BME280;29079;41.930;25.558;2023-06-14T10:03:08;99366.38;;;23.92;69.03
7109;BME280;29079;41.930;25.558;2023-06-14T10:05:59;99367.84;;;23.95;68.15
7109;BME280;29079;41.930;25.558;2023-06-14T10:08:52;99346.44;;;23.55;71.31
7109;BME280;29079;41.930;25.558;2023-06-14T10:11:44;99361.88;;;23.61;68.13
7109;BME280;29079;41.930;25.558;2023-06-14T10:14:32;99368.22;;;23.55;65.95
7109;BME280;29079;41.930;25.558;2023-06-14T10:17:26;99353.09;;;23.59;67.13
7109;BME280;29079;41.930;25.558;2023-06-14T10:20:17;99373.28;;;23.95;70.48
7109;BME280;29079;41.930;25.558;2023-06-14T10:23:18;99353.00;;;23.91;65.46
7109;BME280;29079;41.930;25.558;2023-06-14T10:26:08;99366.91;;;24.01;72.76
7109;BME280;29079;41.930;25.558;2023-06-14T10:29:07;99340.63;;;24.07;71.87
7109;BME280;29079;41.930;25.558;2023-06-14T10:31:57;99353.53;;;24.30;69.39
7109;BME280;29079;41.930;25.558;2023-06-14T10:34:45;99351.28;;;24.27;69.75
7109;BME280;29079;41.930;25.558;2023-06-14T10:37:33;99352.66;;;24.48;64.97
7109;BME280;29079;41.930;25.558;2023-06-14T10:40:31;99349.38;;;24.58;63.89
7109;BME280;29079;41.930;25.558;2023-06-14T10:43:22;99340.50;;;24.62;64.85
7109;BME280;29079;41.930;25.558;2023-06-14T10:46:17;99347.44;;;24.77;66.36
7109;BME280;29079;41.930;25.558;2023-06-14T10:49:08;99340.66;;;24.67;64.73
7109;BME280;29079;41.930;25.558;2023-06-14T10:51:57;99348.25;;;24.77;63.45
7109;BME280;29079;41.930;25.558;2023-06-14T10:55:10;99349.19;;;24.71;61.52
7109;BME280;29079;41.930;25.558;2023-06-14T10:57:59;99302.25;;;24.39;65.00
7109;BME280;29079;41.930;25.558;2023-06-14T11:00:54;99344.25;;;24.92;66.74
7109;BME280;29079;41.930;25.558;2023-06-14T11:03:50;99321.91;;;24.71;63.67
7109;BME280;29079;41.930;25.558;2023-06-14T11:06:47;99325.94;;;24.80;62.89
7109;BME280;29079;41.930;25.558;2023-06-14T11:09:56;99334.63;;;24.89;63.43
7109;BME280;29079;41.930;25.558;2023-06-14T11:12:52;99343.28;;;24.98;64.23
7109;BME280;29079;41.930;25.558;2023-06-14T11:15:44;99332.34;;;24.74;65.99
7109;BME280;29079;41.930;25.558;2023-06-14T11:18:36;99334.75;;;24.82;65.54
7109;BME280;29079;41.930;25.558;2023-06-14T11:21:24;99330.03;;;24.90;68.14
7109;BME280;29079;41.930;25.558;2023-06-14T11:24:17;99302.47;;;24.79;66.94
7109;BME280;29079;41.930;25.558;2023-06-14T11:27:06;99318.78;;;25.10;67.61
7109;BME280;29079;41.930;25.558;2023-06-14T11:29:55;99327.41;;;24.95;63.42
7109;BME280;29079;41.930;25.558;2023-06-14T11:32:46;99324.47;;;25.08;67.63
7109;BME280;29079;41.930;25.558;2023-06-14T11:35:35;99311.41;;;25.10;66.67
7109;BME280;29079;41.930;25.558;2023-06-14T11:38:25;99258.94;;;24.84;67.91
7109;BME280;29079;41.930;25.558;2023-06-14T11:41:12;99323.13;;;24.87;66.01
7109;BME280;29079;41.930;25.558;2023-06-14T11:44:01;99314.63;;;24.53;64.81
7109;BME280;29079;41.930;25.558;2023-06-14T11:46:49;99317.75;;;24.38;66.87
7109;BME280;29079;41.930;25.558;2023-06-14T11:49:37;99316.97;;;24.49;68.66
7109;BME280;29079;41.930;25.558;2023-06-14T11:52:27;99313.72;;;24.59;68.29
7109;BME280;29079;41.930;25.558;2023-06-14T11:55:15;99310.66;;;24.67;65.72
7109;BME280;29079;41.930;25.558;2023-06-14T11:58:03;99308.66;;;24.87;63.00
7109;BME280;29079;41.930;25.558;2023-06-14T12:00:52;99311.59;;;24.73;62.32
7109;BME280;29079;41.930;25.558;2023-06-14T12:03:47;99304.41;;;24.91;65.22
7109;BME280;29079;41.930;25.558;2023-06-14T12:06:35;99301.75;;;24.72;61.23
7109;BME280;29079;41.930;25.558;2023-06-14T12:09:28;99306.00;;;24.68;61.41
7109;BME280;29079;41.930;25.558;2023-06-14T12:12:16;99296.31;;;24.96;66.99
7109;BME280;29079;41.930;25.558;2023-06-14T12:15:04;99300.25;;;24.88;65.37
7109;BME280;29079;41.930;25.558;2023-06-14T12:17:53;99300.72;;;24.85;66.65
7109;BME280;29079;41.930;25.558;2023-06-14T12:20:41;99292.47;;;24.73;64.71
7109;BME280;29079;41.930;25.558;2023-06-14T12:23:45;99297.50;;;25.00;68.36
7109;BME280;29079;41.930;25.558;2023-06-14T12:26:38;99233.53;;;24.60;63.62
7109;BME280;29079;41.930;25.558;2023-06-14T12:29:26;99291.69;;;24.84;62.78
7109;BME280;29079;41.930;25.558;2023-06-14T12:32:14;99284.34;;;25.09;68.64
7109;BME280;29079;41.930;25.558;2023-06-14T12:35:02;99283.53;;;25.08;64.13
7109;BME280;29079;41.930;25.558;2023-06-14T12:37:50;99283.84;;;25.24;67.71
7109;BME280;29079;41.930;25.558;2023-06-14T12:40:41;99253.94;;;25.05;67.08
7109;BME280;29079;41.930;25.558;2023-06-14T12:43:30;99280.56;;;25.33;64.95
7109;BME280;29079;41.930;25.558;2023-06-14T12:46:18;99270.56;;;25.39;62.51
7109;BME280;29079;41.930;25.558;2023-06-14T12:49:08;99264.41;;;25.32;68.24
7109;BME280;29079;41.930;25.558;2023-06-14T12:51:57;99265.22;;;25.20;62.38
7109;BME280;29079;41.930;25.558;2023-06-14T12:54:45;99263.78;;;25.30;62.65
7109;BME280;29079;41.930;25.558;2023-06-14T12:57:33;99267.47;;;25.12;67.44
7109;BME280;29079;41.930;25.558;2023-06-14T13:00:25;99260.38;;;25.23;63.64
7109;BME280;29079;41.930;25.558;2023-06-14T13:03:13;99263.69;;;25.25;67.11
7109;BME280;29079;41.930;25.558;2023-06-14T13:06:01;99259.66;;;25.27;61.53
7109;BME280;29079;41.930;25.558;2023-06-14T13:08:50;99253.09;;;25.16;63.69
7109;BME280;29079;41.930;25.558;2023-06-14T13:11:41;99242.09;;;25.35;64.04
7109;BME280;29079;41.930;25.558;2023-06-14T13:14:32;99238.75;;;25.45;68.06
7109;BME280;29079;41.930;25.558;2023-06-14T13:17:21;99234.22;;;25.50;62.34
7109;BME280;29079;41.930;25.558;2023-06-14T13:20:09;99251.09;;;25.47;60.31
7109;BME280;29079;41.930;25.558;2023-06-14T13:22:59;99239.41;;;25.64;68.28
7109;BME280;29079;41.930;25.558;2023-06-14T13:25:49;99233.00;;;25.58;67.29
7109;BME280;29079;41.930;25.558;2023-06-14T13:28:37;99230.56;;;25.33;62.96
7109;BME280;29079;41.930;25.558;2023-06-14T13:31:25;99225.13;;;25.33;60.75
7109;BME280;29079;41.930;25.558;2023-06-14T13:34:15;99227.59;;;25.34;61.78
7109;BME280;29079;41.930;25.558;2023-06-14T13:37:03;99230.19;;;25.29;59.87
7109;BME280;29079;41.930;25.558;2023-06-14T13:39:51;99227.00;;;25.20;60.13
7109;BME280;29079;41.930;25.558;2023-06-14T13:42:39;99223.66;;;25.42;64.14
7109;BME280;29079;41.930;25.558;2023-06-14T13:45:27;99232.56;;;25.26;60.36
7109;BME280;29079;41.930;25.558;2023-06-14T13:48:15;99200.06;;;25.36;60.76
7109;BME280;29079;41.930;25.558;2023-06-14T13:51:05;99222.00;;;25.41;59.34
7109;BME280;29079;41.930;25.558;2023-06-14T13:53:53;99183.78;;;25.17;60.33
7109;BME280;29079;41.930;25.558;2023-06-14T13:56:42;99228.97;;;25.61;62.77
7109;BME280;29079;41.930;25.558;2023-06-14T13:59:30;99224.13;;;25.51;58.57
7109;BME280;29079;41.930;25.558;2023-06-14T14:02:18;99224.25;;;25.44;57.98
7109;BME280;29079;41.930;25.558;2023-06-14T14:05:08;99216.66;;;25.46;59.45
7109;BME280;29079;41.930;25.558;2023-06-14T14:07:58;99207.06;;;25.72;64.05
7109;BME280;29079;41.930;25.558;2023-06-14T14:10:46;99208.44;;;25.46;59.38
7109;BME280;29079;41.930;25.558;2023-06-14T14:13:34;99207.28;;;25.42;59.48
7109;BME280;29079;41.930;25.558;2023-06-14T14:16:23;99193.03;;;25.40;57.91
7109;BME280;29079;41.930;25.558;2023-06-14T14:19:11;99213.34;;;25.73;58.13
7109;BME280;29079;41.930;25.558;2023-06-14T14:21:59;99208.72;;;25.74;62.95
7109;BME280;29079;41.930;25.558;2023-06-14T14:24:49;99199.53;;;25.51;58.76
7109;BME280;29079;41.930;25.558;2023-06-14T14:27:36;99194.41;;;25.54;65.33
7109;BME280;29079;41.930;25.558;2023-06-14T14:30:24;99194.81;;;25.75;65.29
7109;BME280;29079;41.930;25.558;2023-06-14T14:33:13;99197.53;;;25.75;58.66
7109;BME280;29079;41.930;25.558;2023-06-14T14:36:02;99198.81;;;25.84;65.95
7109;BME280;29079;41.930;25.558;2023-06-14T14:38:51;99198.50;;;25.69;59.29
7109;BME280;29079;41.930;25.558;2023-06-14T14:41:40;99200.38;;;25.28;59.31
7109;BME280;29079;41.930;25.558;2023-06-14T14:44:28;99198.50;;;25.40;60.21
7109;BME280;29079;41.930;25.558;2023-06-14T14:47:16;99203.84;;;25.35;58.94
7109;BME280;29079;41.930;25.558;2023-06-14T14:50:05;99204.34;;;25.08;60.68
7109;BME280;29079;41.930;25.558;2023-06-14T14:52:55;99132.19;;;25.04;58.24
7109;BME280;29079;41.930;25.558;2023-06-14T14:55:43;99190.88;;;25.42;57.55